sensor_id;sensor_type;location;lat;lon;timestamp;P1;durP1;ratioP1;P2;durP2;ratioP2
3771;SDS011;1901;48.172;12.824;2022-12-29T00:02:13;10.37;;;5.47;;
3771;SDS011;1901;48.172;12.824;2022-12-29T00:04:41;8.73;;;3.53;;
3771;SDS011;1901;48.172;12.824;2022-12-29T00:07:09;9.40;;;4.20;;
3771;SDS011;1901;48.172;12.824;2022-12-29T00:09:36;12.63;;;5.03;;
3771;SDS011;1901;48.172;12.824;2022-12-29T00:12:03;9.47;;;4.60;;
3771;SDS011;1901;48.172;12.824;2022-12-29T00:14:31;5.27;;;4.17;;
3771;SDS011;1901;48.172;12.824;2022-12-29T00:17:15;5.87;;;3.73;;
3771;SDS011;1901;48.172;12.824;2022-12-29T00:19:44;6.80;;;3.23;;
3771;SDS011;1901;48.172;12.824;2022-12-29T00:22:29;4.60;;;3.70;;
3771;SDS011;1901;48.172;12.824;2022-12-29T00:25:13;5.93;;;3.60;;
3771;SDS011;1901;48.172;12.824;2022-12-29T00:27:58;5.60;;;3.63;;
3771;SDS011;1901;48.172;12.824;2022-12-29T00:30:43;6.70;;;3.50;;
3771;SDS011;1901;48.172;12.824;2022-12-29T00:33:29;5.67;;;2.83;;
3771;SDS011;1901;48.172;12.824;2022-12-29T00:36:16;4.80;;;2.83;;
3771;SDS011;1901;48.172;12.824;2022-12-29T00:38:45;6.00;;;3.73;;
3771;SDS011;1901;48.172;12.824;2022-12-29T00:41:31;4.30;;;3.10;;
3771;SDS011;1901;48.172;12.824;2022-12-29T00:44:15;3.93;;;3.20;;
3771;SDS011;1901;48.172;12.824;2022-12-29T00:46:42;4.40;;;2.87;;
3771;SDS011;1901;48.172;12.824;2022-12-29T00:49:10;5.03;;;3.70;;
3771;SDS011;1901;48.172;12.824;2022-12-29T00:51:57;4.57;;;2.90;;
3771;SDS011;1901;48.172;12.824;2022-12-29T00:54:24;4.70;;;2.90;;
3771;SDS011;1901;48.172;12.824;2022-12-29T00:56:51;4.57;;;3.30;;
3771;SDS011;1901;48.172;12.824;2022-12-29T00:59:19;5.60;;;3.10;;
3771;SDS011;1901;48.172;12.824;2022-12-29T01:01:46;4.30;;;3.27;;
3771;SDS011;1901;48.172;12.824;2022-12-29T01:04:13;4.77;;;3.50;;
3771;SDS011;1901;48.172;12.824;2022-12-29T01:06:41;2.93;;;2.30;;
3771;SDS011;1901;48.172;12.824;2022-12-29T01:09:09;4.97;;;3.33;;
3771;SDS011;1901;48.172;12.824;2022-12-29T01:11:54;2.50;;;2.30;;
3771;SDS011;1901;48.172;12.824;2022-12-29T01:14:22;3.60;;;2.77;;
3771;SDS011;1901;48.172;12.824;2022-12-29T01:16:49;2.63;;;2.43;;
3771;SDS011;1901;48.172;12.824;2022-12-29T01:19:17;4.07;;;2.70;;
3771;SDS011;1901;48.172;12.824;2022-12-29T01:21:44;4.50;;;3.00;;
3771;SDS011;1901;48.172;12.824;2022-12-29T01:24:12;3.37;;;2.70;;
3771;SDS011;1901;48.172;12.824;2022-12-29T01:26:40;3.17;;;2.10;;
3771;SDS011;1901;48.172;12.824;2022-12-29T01:29:07;3.70;;;3.37;;
3771;SDS011;1901;48.172;12.824;2022-12-29T01:31:34;2.67;;;2.20;;
3771;SDS011;1901;48.172;12.824;2022-12-29T01:34:01;3.37;;;2.10;;
3771;SDS011;1901;48.172;12.824;2022-12-29T01:36:28;3.00;;;2.50;;
3771;SDS011;1901;48.172;12.824;2022-12-29T01:38:56;3.17;;;2.10;;
3771;SDS011;1901;48.172;12.824;2022-12-29T01:41:24;3.80;;;2.57;;
3771;SDS011;1901;48.172;12.824;2022-12-29T01:43:52;2.80;;;2.30;;
3771;SDS011;1901;48.172;12.824;2022-12-29T01:46:20;4.20;;;2.70;;
3771;SDS011;1901;48.172;12.824;2022-12-29T01:48:51;5.70;;;2.90;;
3771;SDS011;1901;48.172;12.824;2022-12-29T01:51:18;3.60;;;2.90;;
3771;SDS011;1901;48.172;12.824;2022-12-29T01:53:46;3.47;;;2.70;;
3771;SDS011;1901;48.172;12.824;2022-12-29T01:56:14;2.13;;;1.83;;
3771;SDS011;1901;48.172;12.824;2022-12-29T01:58:44;2.87;;;2.10;;
3771;SDS011;1901;48.172;12.824;2022-12-29T02:01:13;2.70;;;2.27;;
3771;SDS011;1901;48.172;12.824;2022-12-29T02:03:40;3.70;;;2.20;;
3771;SDS011;1901;48.172;12.824;2022-12-29T02:06:09;3.77;;;2.70;;
3771;SDS011;1901;48.172;12.824;2022-12-29T02:08:37;4.27;;;2.20;;
3771;SDS011;1901;48.172;12.824;2022-12-29T02:11:05;3.30;;;1.97;;
3771;SDS011;1901;48.172;12.824;2022-12-29T02:13:32;1.57;;;1.43;;
3771;SDS011;1901;48.172;12.824;2022-12-29T02:16:02;2.90;;;2.30;;
3771;SDS011;1901;48.172;12.824;2022-12-29T02:18:35;2.90;;;1.70;;
3771;SDS011;1901;48.172;12.824;2022-12-29T02:21:10;4.90;;;3.17;;
3771;SDS011;1901;48.172;12.824;2022-12-29T02:23:59;2.83;;;2.37;;
3771;SDS011;1901;48.172;12.824;2022-12-29T02:26:39;3.30;;;2.27;;
3771;SDS011;1901;48.172;12.824;2022-12-29T02:32:03;3.00;;;1.93;;
3771;SDS011;1901;48.172;12.824;2022-12-29T02:34:35;2.40;;;2.20;;
3771;SDS011;1901;48.172;12.824;2022-12-29T02:37:04;2.40;;;1.67;;
3771;SDS011;1901;48.172;12.824;2022-12-29T02:39:36;3.10;;;2.23;;
3771;SDS011;1901;48.172;12.824;2022-12-29T02:42:07;2.60;;;2.40;;
3771;SDS011;1901;48.172;12.824;2022-12-29T02:44:39;2.63;;;2.20;;
3771;SDS011;1901;48.172;12.824;2022-12-29T02:47:11;3.20;;;2.23;;
3771;SDS011;1901;48.172;12.824;2022-12-29T02:49:43;3.30;;;2.10;;
3771;SDS011;1901;48.172;12.824;2022-12-29T02:52:14;3.10;;;2.33;;
3771;SDS011;1901;48.172;12.824;2022-12-29T02:54:43;2.60;;;2.00;;
3771;SDS011;1901;48.172;12.824;2022-12-29T02:57:12;4.63;;;1.93;;
3771;SDS011;1901;48.172;12.824;2022-12-29T02:59:41;3.50;;;2.30;;
3771;SDS011;1901;48.172;12.824;2022-12-29T03:02:20;2.10;;;1.80;;
3771;SDS011;1901;48.172;12.824;2022-12-29T03:04:56;4.30;;;2.67;;
3771;SDS011;1901;48.172;12.824;2022-12-29T03:07:29;3.83;;;1.83;;
3771;SDS011;1901;48.172;12.824;2022-12-29T03:10:00;3.43;;;2.00;;
3771;SDS011;1901;48.172;12.824;2022-12-29T03:12:29;2.33;;;2.00;;
3771;SDS011;1901;48.172;12.824;2022-12-29T03:15:16;2.50;;;2.03;;
3771;SDS011;1901;48.172;12.824;2022-12-29T03:18:04;2.47;;;1.93;;
3771;SDS011;1901;48.172;12.824;2022-12-29T03:20:35;4.10;;;2.97;;
3771;SDS011;1901;48.172;12.824;2022-12-29T03:23:05;2.13;;;1.80;;
3771;SDS011;1901;48.172;12.824;2022-12-29T03:25:33;3.83;;;2.80;;
3771;SDS011;1901;48.172;12.824;2022-12-29T03:28:03;4.43;;;2.10;;
3771;SDS011;1901;48.172;12.824;2022-12-29T03:30:30;7.43;;;2.33;;
3771;SDS011;1901;48.172;12.824;2022-12-29T03:32:59;4.30;;;2.83;;
3771;SDS011;1901;48.172;12.824;2022-12-29T03:35:30;1.87;;;1.50;;
3771;SDS011;1901;48.172;12.824;2022-12-29T03:37:59;2.80;;;2.20;;
3771;SDS011;1901;48.172;12.824;2022-12-29T03:40:29;2.30;;;1.80;;
3771;SDS011;1901;48.172;12.824;2022-12-29T03:42:57;3.80;;;2.23;;
3771;SDS011;1901;48.172;12.824;2022-12-29T03:45:25;2.33;;;1.60;;
3771;SDS011;1901;48.172;12.824;2022-12-29T03:47:52;3.40;;;1.93;;
3771;SDS011;1901;48.172;12.824;2022-12-29T03:50:21;9.67;;;4.73;;
3771;SDS011;1901;48.172;12.824;2022-12-29T03:52:49;5.60;;;3.50;;
3771;SDS011;1901;48.172;12.824;2022-12-29T03:55:16;2.57;;;1.73;;
3771;SDS011;1901;48.172;12.824;2022-12-29T03:57:43;2.53;;;1.93;;
3771;SDS011;1901;48.172;12.824;2022-12-29T04:00:11;2.90;;;1.40;;
3771;SDS011;1901;48.172;12.824;2022-12-29T04:02:38;2.37;;;1.53;;
3771;SDS011;1901;48.172;12.824;2022-12-29T04:05:05;5.67;;;3.70;;
3771;SDS011;1901;48.172;12.824;2022-12-29T04:07:33;2.63;;;2.03;;
3771;SDS011;1901;48.172;12.824;2022-12-29T04:10:01;2.10;;;1.90;;
3771;SDS011;1901;48.172;12.824;2022-12-29T04:12:28;2.33;;;2.03;;
3771;SDS011;1901;48.172;12.824;2022-12-29T04:14:55;3.77;;;2.20;;
3771;SDS011;1901;48.172;12.824;2022-12-29T04:17:23;5.70;;;2.30;;
3771;SDS011;1901;48.172;12.824;2022-12-29T04:19:50;1.60;;;1.50;;
3771;SDS011;1901;48.172;12.824;2022-12-29T04:22:37;2.80;;;1.60;;
3771;SDS011;1901;48.172;12.824;2022-12-29T04:25:06;2.40;;;2.10;;
3771;SDS011;1901;48.172;12.824;2022-12-29T04:27:33;2.90;;;1.80;;
3771;SDS011;1901;48.172;12.824;2022-12-29T04:30:00;2.47;;;1.73;;
3771;SDS011;1901;48.172;12.824;2022-12-29T04:32:27;5.20;;;3.03;;
3771;SDS011;1901;48.172;12.824;2022-12-29T04:34:54;2.80;;;2.23;;
3771;SDS011;1901;48.172;12.824;2022-12-29T04:37:21;2.40;;;1.87;;
3771;SDS011;1901;48.172;12.824;2022-12-29T04:39:48;2.43;;;1.97;;
3771;SDS011;1901;48.172;12.824;2022-12-29T04:42:17;3.30;;;2.13;;
3771;SDS011;1901;48.172;12.824;2022-12-29T04:44:44;3.03;;;1.70;;
3771;SDS011;1901;48.172;12.824;2022-12-29T04:47:11;2.23;;;1.50;;
3771;SDS011;1901;48.172;12.824;2022-12-29T04:49:38;2.90;;;1.87;;
3771;SDS011;1901;48.172;12.824;2022-12-29T04:52:05;2.90;;;2.37;;
3771;SDS011;1901;48.172;12.824;2022-12-29T04:54:33;2.30;;;2.10;;
3771;SDS011;1901;48.172;12.824;2022-12-29T04:57:00;5.30;;;1.90;;
3771;SDS011;1901;48.172;12.824;2022-12-29T04:59:28;3.80;;;2.67;;
3771;SDS011;1901;48.172;12.824;2022-12-29T05:01:55;3.90;;;2.70;;
3771;SDS011;1901;48.172;12.824;2022-12-29T05:04:23;3.40;;;2.10;;
3771;SDS011;1901;48.172;12.824;2022-12-29T05:06:50;3.97;;;2.57;;
3771;SDS011;1901;48.172;12.824;2022-12-29T05:09:17;2.73;;;2.00;;
3771;SDS011;1901;48.172;12.824;2022-12-29T05:11:44;2.20;;;2.00;;
3771;SDS011;1901;48.172;12.824;2022-12-29T05:14:11;2.60;;;2.00;;
3771;SDS011;1901;48.172;12.824;2022-12-29T05:16:39;2.60;;;1.93;;
3771;SDS011;1901;48.172;12.824;2022-12-29T05:19:06;2.77;;;2.00;;
3771;SDS011;1901;48.172;12.824;2022-12-29T05:21:33;2.90;;;2.40;;
3771;SDS011;1901;48.172;12.824;2022-12-29T05:24:01;3.60;;;1.97;;
3771;SDS011;1901;48.172;12.824;2022-12-29T05:26:28;3.20;;;2.20;;
3771;SDS011;1901;48.172;12.824;2022-12-29T05:28:55;2.30;;;2.10;;
3771;SDS011;1901;48.172;12.824;2022-12-29T05:31:22;7.23;;;4.20;;
3771;SDS011;1901;48.172;12.824;2022-12-29T05:33:50;5.33;;;2.27;;
3771;SDS011;1901;48.172;12.824;2022-12-29T05:36:17;2.87;;;2.57;;
3771;SDS011;1901;48.172;12.824;2022-12-29T05:38:45;1.90;;;1.50;;
3771;SDS011;1901;48.172;12.824;2022-12-29T05:41:12;3.80;;;3.43;;
3771;SDS011;1901;48.172;12.824;2022-12-29T05:43:39;5.60;;;2.60;;
3771;SDS011;1901;48.172;12.824;2022-12-29T05:46:06;3.50;;;2.17;;
3771;SDS011;1901;48.172;12.824;2022-12-29T05:48:33;3.60;;;1.70;;
3771;SDS011;1901;48.172;12.824;2022-12-29T05:51:01;4.70;;;2.97;;
3771;SDS011;1901;48.172;12.824;2022-12-29T05:53:28;2.23;;;1.60;;
3771;SDS011;1901;48.172;12.824;2022-12-29T05:55:55;2.87;;;1.73;;
3771;SDS011;1901;48.172;12.824;2022-12-29T05:58:22;1.80;;;1.60;;
3771;SDS011;1901;48.172;12.824;2022-12-29T06:00:50;2.20;;;1.53;;
3771;SDS011;1901;48.172;12.824;2022-12-29T06:03:17;1.87;;;1.67;;
3771;SDS011;1901;48.172;12.824;2022-12-29T06:05:44;2.60;;;2.03;;
3771;SDS011;1901;48.172;12.824;2022-12-29T06:08:13;3.67;;;1.90;;
3771;SDS011;1901;48.172;12.824;2022-12-29T06:10:40;5.57;;;2.20;;
3771;SDS011;1901;48.172;12.824;2022-12-29T06:13:07;3.40;;;1.90;;
3771;SDS011;1901;48.172;12.824;2022-12-29T06:15:34;2.43;;;1.77;;
3771;SDS011;1901;48.172;12.824;2022-12-29T06:18:02;4.43;;;1.90;;
3771;SDS011;1901;48.172;12.824;2022-12-29T06:20:29;5.73;;;2.30;;
3771;SDS011;1901;48.172;12.824;2022-12-29T06:22:56;3.43;;;2.20;;
3771;SDS011;1901;48.172;12.824;2022-12-29T06:25:24;5.60;;;2.07;;
3771;SDS011;1901;48.172;12.824;2022-12-29T06:27:51;3.00;;;2.07;;
3771;SDS011;1901;48.172;12.824;2022-12-29T06:30:18;8.20;;;3.60;;
3771;SDS011;1901;48.172;12.824;2022-12-29T06:32:45;7.30;;;3.40;;
3771;SDS011;1901;48.172;12.824;2022-12-29T06:35:12;4.50;;;2.20;;
3771;SDS011;1901;48.172;12.824;2022-12-29T06:37:40;5.43;;;1.73;;
3771;SDS011;1901;48.172;12.824;2022-12-29T06:40:07;3.03;;;2.10;;
3771;SDS011;1901;48.172;12.824;2022-12-29T06:42:36;4.03;;;2.10;;
3771;SDS011;1901;48.172;12.824;2022-12-29T06:45:03;3.47;;;2.60;;
3771;SDS011;1901;48.172;12.824;2022-12-29T06:47:30;3.40;;;2.73;;
3771;SDS011;1901;48.172;12.824;2022-12-29T06:49:57;3.50;;;2.83;;
3771;SDS011;1901;48.172;12.824;2022-12-29T06:52:24;6.33;;;3.30;;
3771;SDS011;1901;48.172;12.824;2022-12-29T06:54:53;5.10;;;3.73;;
3771;SDS011;1901;48.172;12.824;2022-12-29T06:57:20;4.90;;;3.37;;
3771;SDS011;1901;48.172;12.824;2022-12-29T06:59:49;8.63;;;4.50;;
3771;SDS011;1901;48.172;12.824;2022-12-29T07:02:16;6.87;;;4.87;;
3771;SDS011;1901;48.172;12.824;2022-12-29T07:04:44;6.90;;;4.30;;
3771;SDS011;1901;48.172;12.824;2022-12-29T07:07:11;7.17;;;4.00;;
3771;SDS011;1901;48.172;12.824;2022-12-29T07:09:38;8.27;;;4.70;;
3771;SDS011;1901;48.172;12.824;2022-12-29T07:12:05;7.20;;;4.77;;
3771;SDS011;1901;48.172;12.824;2022-12-29T07:14:33;5.90;;;3.00;;
3771;SDS011;1901;48.172;12.824;2022-12-29T07:17:02;10.27;;;4.97;;
3771;SDS011;1901;48.172;12.824;2022-12-29T07:19:31;5.80;;;2.90;;
3771;SDS011;1901;48.172;12.824;2022-12-29T07:21:58;9.50;;;3.70;;
3771;SDS011;1901;48.172;12.824;2022-12-29T07:24:26;2.33;;;1.83;;
3771;SDS011;1901;48.172;12.824;2022-12-29T07:26:53;2.37;;;2.17;;
3771;SDS011;1901;48.172;12.824;2022-12-29T07:29:20;6.63;;;3.30;;
3771;SDS011;1901;48.172;12.824;2022-12-29T07:31:47;3.93;;;2.70;;
3771;SDS011;1901;48.172;12.824;2022-12-29T07:34:16;6.23;;;3.73;;
3771;SDS011;1901;48.172;12.824;2022-12-29T07:36:43;4.60;;;3.13;;
3771;SDS011;1901;48.172;12.824;2022-12-29T07:39:10;3.87;;;2.70;;
3771;SDS011;1901;48.172;12.824;2022-12-29T07:41:37;4.17;;;2.83;;
3771;SDS011;1901;48.172;12.824;2022-12-29T07:44:04;5.13;;;3.33;;
3771;SDS011;1901;48.172;12.824;2022-12-29T07:46:31;4.93;;;3.10;;
3771;SDS011;1901;48.172;12.824;2022-12-29T07:48:58;3.67;;;2.83;;
3771;SDS011;1901;48.172;12.824;2022-12-29T07:51:27;3.80;;;2.70;;
3771;SDS011;1901;48.172;12.824;2022-12-29T07:53:54;3.77;;;1.80;;
3771;SDS011;1901;48.172;12.824;2022-12-29T07:56:21;2.63;;;1.80;;
3771;SDS011;1901;48.172;12.824;2022-12-29T07:58:48;3.37;;;2.40;;
3771;SDS011;1901;48.172;12.824;2022-12-29T08:01:15;7.40;;;2.70;;
3771;SDS011;1901;48.172;12.824;2022-12-29T08:03:42;2.77;;;2.00;;
3771;SDS011;1901;48.172;12.824;2022-12-29T08:06:09;2.90;;;1.93;;
3771;SDS011;1901;48.172;12.824;2022-12-29T08:08:38;3.00;;;2.53;;
3771;SDS011;1901;48.172;12.824;2022-12-29T08:11:05;6.50;;;2.60;;
3771;SDS011;1901;48.172;12.824;2022-12-29T08:13:32;5.40;;;2.50;;
3771;SDS011;1901;48.172;12.824;2022-12-29T08:15:59;3.20;;;2.90;;
3771;SDS011;1901;48.172;12.824;2022-12-29T08:18:26;2.73;;;2.17;;
3771;SDS011;1901;48.172;12.824;2022-12-29T08:20:53;2.33;;;2.13;;
3771;SDS011;1901;48.172;12.824;2022-12-29T08:23:20;5.53;;;2.80;;
3771;SDS011;1901;48.172;12.824;2022-12-29T08:25:57;4.40;;;3.50;;
3771;SDS011;1901;48.172;12.824;2022-12-29T08:28:24;4.20;;;2.83;;
3771;SDS011;1901;48.172;12.824;2022-12-29T08:30:51;3.90;;;2.53;;
3771;SDS011;1901;48.172;12.824;2022-12-29T08:33:18;4.10;;;2.30;;
3771;SDS011;1901;48.172;12.824;2022-12-29T08:35:45;3.23;;;2.10;;
3771;SDS011;1901;48.172;12.824;2022-12-29T08:38:12;4.77;;;2.97;;
3771;SDS011;1901;48.172;12.824;2022-12-29T08:40:39;5.80;;;3.00;;
3771;SDS011;1901;48.172;12.824;2022-12-29T08:43:08;4.05;;;2.50;;
3771;SDS011;1901;48.172;12.824;2022-12-29T08:45:35;4.80;;;2.60;;
3771;SDS011;1901;48.172;12.824;2022-12-29T08:48:02;4.20;;;3.20;;
3771;SDS011;1901;48.172;12.824;2022-12-29T08:50:29;3.20;;;2.30;;
3771;SDS011;1901;48.172;12.824;2022-12-29T08:52:56;5.13;;;2.23;;
3771;SDS011;1901;48.172;12.824;2022-12-29T08:55:23;4.43;;;2.50;;
3771;SDS011;1901;48.172;12.824;2022-12-29T08:57:51;4.60;;;2.30;;
3771;SDS011;1901;48.172;12.824;2022-12-29T09:00:19;5.30;;;2.60;;
3771;SDS011;1901;48.172;12.824;2022-12-29T09:02:46;4.50;;;2.47;;
3771;SDS011;1901;48.172;12.824;2022-12-29T09:05:13;3.40;;;2.23;;
3771;SDS011;1901;48.172;12.824;2022-12-29T09:07:41;3.93;;;2.57;;
3771;SDS011;1901;48.172;12.824;2022-12-29T09:10:08;3.60;;;1.97;;
3771;SDS011;1901;48.172;12.824;2022-12-29T09:12:35;5.97;;;4.00;;
3771;SDS011;1901;48.172;12.824;2022-12-29T09:15:02;3.57;;;2.97;;
3771;SDS011;1901;48.172;12.824;2022-12-29T09:17:31;6.43;;;3.60;;
3771;SDS011;1901;48.172;12.824;2022-12-29T09:20:08;6.07;;;3.20;;
3771;SDS011;1901;48.172;12.824;2022-12-29T09:22:36;4.37;;;3.30;;
3771;SDS011;1901;48.172;12.824;2022-12-29T09:25:03;6.97;;;3.37;;
3771;SDS011;1901;48.172;12.824;2022-12-29T09:27:30;7.07;;;4.10;;
3771;SDS011;1901;48.172;12.824;2022-12-29T09:29:57;3.43;;;2.30;;
3771;SDS011;1901;48.172;12.824;2022-12-29T09:32:24;4.20;;;2.40;;
3771;SDS011;1901;48.172;12.824;2022-12-29T09:34:53;6.57;;;2.53;;
3771;SDS011;1901;48.172;12.824;2022-12-29T09:37:20;3.27;;;2.43;;
3771;SDS011;1901;48.172;12.824;2022-12-29T09:39:47;4.37;;;2.47;;
3771;SDS011;1901;48.172;12.824;2022-12-29T09:42:16;3.20;;;2.27;;
3771;SDS011;1901;48.172;12.824;2022-12-29T09:44:48;3.30;;;2.10;;
3771;SDS011;1901;48.172;12.824;2022-12-29T09:47:18;2.77;;;2.00;;
3771;SDS011;1901;48.172;12.824;2022-12-29T09:49:47;4.60;;;2.93;;
3771;SDS011;1901;48.172;12.824;2022-12-29T09:52:17;7.87;;;3.67;;
3771;SDS011;1901;48.172;12.824;2022-12-29T09:54:46;5.70;;;3.93;;
3771;SDS011;1901;48.172;12.824;2022-12-29T09:57:16;5.20;;;3.70;;
3771;SDS011;1901;48.172;12.824;2022-12-29T09:59:45;5.20;;;2.80;;
3771;SDS011;1901;48.172;12.824;2022-12-29T10:02:16;7.43;;;3.90;;
3771;SDS011;1901;48.172;12.824;2022-12-29T10:04:47;7.17;;;4.60;;
3771;SDS011;1901;48.172;12.824;2022-12-29T10:07:16;5.70;;;3.70;;
3771;SDS011;1901;48.172;12.824;2022-12-29T10:09:47;6.03;;;2.67;;
3771;SDS011;1901;48.172;12.824;2022-12-29T10:12:20;3.33;;;2.53;;
3771;SDS011;1901;48.172;12.824;2022-12-29T10:14:53;6.87;;;4.33;;
3771;SDS011;1901;48.172;12.824;2022-12-29T10:17:25;4.40;;;2.83;;
3771;SDS011;1901;48.172;12.824;2022-12-29T10:19:56;5.40;;;2.80;;
3771;SDS011;1901;48.172;12.824;2022-12-29T10:22:32;5.30;;;3.30;;
3771;SDS011;1901;48.172;12.824;2022-12-29T10:25:08;3.30;;;2.30;;
3771;SDS011;1901;48.172;12.824;2022-12-29T10:27:38;5.77;;;3.30;;
3771;SDS011;1901;48.172;12.824;2022-12-29T10:30:05;4.67;;;3.20;;
3771;SDS011;1901;48.172;12.824;2022-12-29T10:32:34;3.90;;;2.90;;
3771;SDS011;1901;48.172;12.824;2022-12-29T10:35:03;4.40;;;2.77;;
3771;SDS011;1901;48.172;12.824;2022-12-29T10:37:33;4.53;;;2.93;;
3771;SDS011;1901;48.172;12.824;2022-12-29T10:40:02;5.67;;;3.90;;
3771;SDS011;1901;48.172;12.824;2022-12-29T10:42:33;4.97;;;3.20;;
3771;SDS011;1901;48.172;12.824;2022-12-29T10:45:02;10.07;;;6.20;;
3771;SDS011;1901;48.172;12.824;2022-12-29T10:47:31;10.47;;;6.63;;
3771;SDS011;1901;48.172;12.824;2022-12-29T10:50:00;7.73;;;5.47;;
3771;SDS011;1901;48.172;12.824;2022-12-29T10:52:28;7.67;;;4.03;;
3771;SDS011;1901;48.172;12.824;2022-12-29T10:54:56;7.60;;;3.03;;
3771;SDS011;1901;48.172;12.824;2022-12-29T10:57:26;5.90;;;3.70;;
3771;SDS011;1901;48.172;12.824;2022-12-29T10:59:55;8.33;;;4.90;;
3771;SDS011;1901;48.172;12.824;2022-12-29T11:02:25;2.73;;;2.43;;
3771;SDS011;1901;48.172;12.824;2022-12-29T11:04:55;4.93;;;3.80;;
3771;SDS011;1901;48.172;12.824;2022-12-29T11:07:24;6.90;;;4.83;;
3771;SDS011;1901;48.172;12.824;2022-12-29T11:09:51;7.13;;;2.90;;
3771;SDS011;1901;48.172;12.824;2022-12-29T11:12:20;4.03;;;2.60;;
3771;SDS011;1901;48.172;12.824;2022-12-29T11:14:47;4.70;;;3.37;;
3771;SDS011;1901;48.172;12.824;2022-12-29T11:17:28;7.03;;;3.83;;
3771;SDS011;1901;48.172;12.824;2022-12-29T11:19:55;3.10;;;2.50;;
3771;SDS011;1901;48.172;12.824;2022-12-29T11:22:23;4.57;;;3.37;;
3771;SDS011;1901;48.172;12.824;2022-12-29T11:24:51;3.63;;;3.20;;
3771;SDS011;1901;48.172;12.824;2022-12-29T11:27:19;4.70;;;2.80;;
3771;SDS011;1901;48.172;12.824;2022-12-29T11:29:48;6.60;;;2.93;;
3771;SDS011;1901;48.172;12.824;2022-12-29T11:32:17;8.40;;;3.43;;
3771;SDS011;1901;48.172;12.824;2022-12-29T11:34:46;3.07;;;2.30;;
3771;SDS011;1901;48.172;12.824;2022-12-29T11:37:14;4.10;;;2.37;;
3771;SDS011;1901;48.172;12.824;2022-12-29T11:39:45;8.03;;;4.07;;
3771;SDS011;1901;48.172;12.824;2022-12-29T11:42:15;3.33;;;2.70;;
3771;SDS011;1901;48.172;12.824;2022-12-29T11:44:44;3.93;;;2.60;;
3771;SDS011;1901;48.172;12.824;2022-12-29T11:47:13;3.60;;;2.57;;
3771;SDS011;1901;48.172;12.824;2022-12-29T11:49:50;3.93;;;2.50;;
3771;SDS011;1901;48.172;12.824;2022-12-29T11:52:20;3.70;;;2.70;;
3771;SDS011;1901;48.172;12.824;2022-12-29T11:54:47;5.03;;;2.40;;
3771;SDS011;1901;48.172;12.824;2022-12-29T11:57:15;3.93;;;2.60;;
3771;SDS011;1901;48.172;12.824;2022-12-29T11:59:43;7.37;;;3.50;;
3771;SDS011;1901;48.172;12.824;2022-12-29T12:02:20;3.93;;;2.97;;
3771;SDS011;1901;48.172;12.824;2022-12-29T12:04:51;3.40;;;2.70;;
3771;SDS011;1901;48.172;12.824;2022-12-29T12:07:20;3.30;;;2.60;;
3771;SDS011;1901;48.172;12.824;2022-12-29T12:09:50;4.20;;;2.80;;
3771;SDS011;1901;48.172;12.824;2022-12-29T12:12:21;4.67;;;2.93;;
3771;SDS011;1901;48.172;12.824;2022-12-29T12:14:51;3.97;;;2.80;;
3771;SDS011;1901;48.172;12.824;2022-12-29T12:17:22;4.50;;;3.20;;
3771;SDS011;1901;48.172;12.824;2022-12-29T12:19:53;3.27;;;2.77;;
3771;SDS011;1901;48.172;12.824;2022-12-29T12:22:25;4.53;;;2.70;;
3771;SDS011;1901;48.172;12.824;2022-12-29T12:24:55;5.57;;;3.60;;
3771;SDS011;1901;48.172;12.824;2022-12-29T12:27:23;6.10;;;2.40;;
3771;SDS011;1901;48.172;12.824;2022-12-29T12:29:52;6.07;;;2.63;;
3771;SDS011;1901;48.172;12.824;2022-12-29T12:32:25;5.57;;;2.90;;
3771;SDS011;1901;48.172;12.824;2022-12-29T12:34:55;4.20;;;2.50;;
3771;SDS011;1901;48.172;12.824;2022-12-29T12:37:38;4.90;;;3.67;;
3771;SDS011;1901;48.172;12.824;2022-12-29T12:40:21;3.60;;;2.50;;
3771;SDS011;1901;48.172;12.824;2022-12-29T12:42:52;6.20;;;3.37;;
3771;SDS011;1901;48.172;12.824;2022-12-29T12:45:27;6.27;;;3.50;;
3771;SDS011;1901;48.172;12.824;2022-12-29T12:47:59;3.70;;;2.93;;
3771;SDS011;1901;48.172;12.824;2022-12-29T12:50:35;2.93;;;2.27;;
3771;SDS011;1901;48.172;12.824;2022-12-29T12:53:13;8.97;;;3.03;;
3771;SDS011;1901;48.172;12.824;2022-12-29T12:55:49;5.83;;;2.60;;
3771;SDS011;1901;48.172;12.824;2022-12-29T12:58:21;5.53;;;2.10;;
3771;SDS011;1901;48.172;12.824;2022-12-29T13:00:54;3.60;;;2.80;;
3771;SDS011;1901;48.172;12.824;2022-12-29T13:03:25;6.50;;;2.80;;
3771;SDS011;1901;48.172;12.824;2022-12-29T13:06:02;6.60;;;3.27;;
3771;SDS011;1901;48.172;12.824;2022-12-29T13:08:41;10.90;;;5.60;;
3771;SDS011;1901;48.172;12.824;2022-12-29T13:11:17;13.07;;;6.20;;
3771;SDS011;1901;48.172;12.824;2022-12-29T13:13:49;6.77;;;4.33;;
3771;SDS011;1901;48.172;12.824;2022-12-29T13:16:21;6.23;;;3.37;;
3771;SDS011;1901;48.172;12.824;2022-12-29T13:18:51;9.80;;;4.60;;
3771;SDS011;1901;48.172;12.824;2022-12-29T13:21:25;16.40;;;7.40;;
3771;SDS011;1901;48.172;12.824;2022-12-29T13:23:55;7.30;;;4.73;;
3771;SDS011;1901;48.172;12.824;2022-12-29T13:26:26;7.03;;;3.73;;
3771;SDS011;1901;48.172;12.824;2022-12-29T13:28:56;7.57;;;4.27;;
3771;SDS011;1901;48.172;12.824;2022-12-29T13:31:26;8.27;;;5.30;;
3771;SDS011;1901;48.172;12.824;2022-12-29T13:33:56;5.20;;;3.47;;
3771;SDS011;1901;48.172;12.824;2022-12-29T13:36:29;4.60;;;3.30;;
3771;SDS011;1901;48.172;12.824;2022-12-29T13:39:01;5.73;;;3.90;;
3771;SDS011;1901;48.172;12.824;2022-12-29T13:41:30;6.33;;;3.17;;
3771;SDS011;1901;48.172;12.824;2022-12-29T13:43:59;6.00;;;3.40;;
3771;SDS011;1901;48.172;12.824;2022-12-29T13:46:28;12.47;;;5.47;;
3771;SDS011;1901;48.172;12.824;2022-12-29T13:48:57;13.23;;;7.13;;
3771;SDS011;1901;48.172;12.824;2022-12-29T13:51:25;8.27;;;5.00;;
3771;SDS011;1901;48.172;12.824;2022-12-29T13:53:58;11.73;;;6.23;;
3771;SDS011;1901;48.172;12.824;2022-12-29T13:56:31;15.03;;;4.60;;
3771;SDS011;1901;48.172;12.824;2022-12-29T13:59:05;9.60;;;3.83;;
3771;SDS011;1901;48.172;12.824;2022-12-29T14:01:37;4.33;;;2.93;;
3771;SDS011;1901;48.172;12.824;2022-12-29T14:04:09;4.47;;;3.50;;
3771;SDS011;1901;48.172;12.824;2022-12-29T14:06:36;10.90;;;5.60;;
3771;SDS011;1901;48.172;12.824;2022-12-29T14:09:25;11.87;;;5.93;;
3771;SDS011;1901;48.172;12.824;2022-12-29T14:11:54;5.60;;;3.60;;
3771;SDS011;1901;48.172;12.824;2022-12-29T14:14:22;3.33;;;2.27;;
3771;SDS011;1901;48.172;12.824;2022-12-29T14:16:49;8.50;;;4.07;;
3771;SDS011;1901;48.172;12.824;2022-12-29T14:19:18;10.17;;;6.03;;
3771;SDS011;1901;48.172;12.824;2022-12-29T14:21:50;4.30;;;2.97;;
3771;SDS011;1901;48.172;12.824;2022-12-29T14:24:38;6.53;;;3.53;;
3771;SDS011;1901;48.172;12.824;2022-12-29T14:29:51;5.20;;;3.20;;
3771;SDS011;1901;48.172;12.824;2022-12-29T14:32:37;6.10;;;3.47;;
3771;SDS011;1901;48.172;12.824;2022-12-29T14:37:50;6.40;;;4.63;;
3771;SDS011;1901;48.172;12.824;2022-12-29T14:40:33;13.10;;;8.20;;
3771;SDS011;1901;48.172;12.824;2022-12-29T14:43:00;13.37;;;7.80;;
3771;SDS011;1901;48.172;12.824;2022-12-29T14:45:28;9.90;;;6.80;;
3771;SDS011;1901;48.172;12.824;2022-12-29T14:47:57;17.60;;;10.70;;
3771;SDS011;1901;48.172;12.824;2022-12-29T14:50:26;16.43;;;9.43;;
3771;SDS011;1901;48.172;12.824;2022-12-29T14:53:00;7.50;;;5.40;;
3771;SDS011;1901;48.172;12.824;2022-12-29T14:55:29;5.53;;;4.47;;
3771;SDS011;1901;48.172;12.824;2022-12-29T14:57:58;4.80;;;3.43;;
3771;SDS011;1901;48.172;12.824;2022-12-29T15:00:29;3.47;;;3.17;;
3771;SDS011;1901;48.172;12.824;2022-12-29T15:03:01;4.60;;;2.83;;
3771;SDS011;1901;48.172;12.824;2022-12-29T15:05:30;7.80;;;6.10;;
3771;SDS011;1901;48.172;12.824;2022-12-29T15:07:58;11.23;;;6.70;;
3771;SDS011;1901;48.172;12.824;2022-12-29T15:10:26;8.30;;;4.97;;
3771;SDS011;1901;48.172;12.824;2022-12-29T15:13:02;4.77;;;3.93;;
3771;SDS011;1901;48.172;12.824;2022-12-29T15:15:35;7.37;;;4.47;;
3771;SDS011;1901;48.172;12.824;2022-12-29T15:18:12;3.80;;;3.20;;
3771;SDS011;1901;48.172;12.824;2022-12-29T15:20:40;3.93;;;3.40;;
3771;SDS011;1901;48.172;12.824;2022-12-29T15:23:09;9.87;;;6.97;;
3771;SDS011;1901;48.172;12.824;2022-12-29T15:25:45;6.90;;;4.33;;